TimeCDT,TemperatureF,Dew PointF,Humidity,Sea Level PressureIn,VisibilityMPH,Wind Direction,Wind SpeedMPH,Gust SpeedMPH,PrecipitationIn,Events,Conditions,WindDirDegrees,DateUTC
12:56 AM,50.0,37.9,63,30.16,-9999.0,Calm,Calm,-,N/A,,Unknown,0,2012-09-15 05:56:00
1:56 AM,46.9,36.0,66,30.14,-9999.0,SE,4.6,-,N/A,,Unknown,140,2012-09-15 06:56:00
2:56 AM,45.0,37.0,74,30.13,-9999.0,WSW,3.5,-,N/A,,Unknown,240,2012-09-15 07:56:00
3:56 AM,41.0,35.1,79,30.12,-9999.0,SSW,3.5,-,N/A,,Unknown,200,2012-09-15 08:56:00
4:56 AM,37.9,35.1,89,30.10,-9999.0,South,5.8,-,N/A,,Unknown,180,2012-09-15 09:56:00
5:56 AM,37.0,34.0,89,30.10,-9999.0,South,5.8,-,N/A,,Unknown,190,2012-09-15 10:56:00
6:56 AM,37.9,34.0,86,30.09,-9999.0,Calm,Calm,-,N/A,,Unknown,0,2012-09-15 11:56:00
7:56 AM,41.0,36.0,82,30.08,-9999.0,Calm,Calm,-,N/A,,Unknown,0,2012-09-15 12:56:00
8:56 AM,50.0,41.0,71,30.05,-9999.0,SE,3.5,-,N/A,,Unknown,130,2012-09-15 13:56:00
9:56 AM,62.1,41.0,46,30.02,-9999.0,SSE,5.8,-,N/A,,Unknown,150,2012-09-15 14:56:00
10:56 AM,71.1,41.0,34,29.99,-9999.0,South,9.2,-,N/A,,Unknown,170,2012-09-15 15:56:00
11:56 AM,78.1,42.1,28,29.96,-9999.0,South,12.7,-,N/A,,Unknown,180,2012-09-15 16:56:00
12:56 PM,84.9,39.9,20,29.92,-9999.0,South,13.8,-,N/A,,Unknown,180,2012-09-15 17:56:00
1:56 PM,88.0,42.1,20,29.89,-9999.0,SW,13.8,23.0,N/A,,Unknown,220,2012-09-15 18:56:00
2:56 PM,89.1,39.0,17,29.87,-9999.0,WSW,18.4,24.2,N/A,,Unknown,250,2012-09-15 19:56:00
3:56 PM,89.1,39.0,17,29.85,-9999.0,SW,21.9,27.6,N/A,,Unknown,230,2012-09-15 20:56:00
4:56 PM,87.1,39.0,18,29.84,-9999.0,SW,19.6,29.9,N/A,,Unknown,230,2012-09-15 21:56:00
5:56 PM,84.0,41.0,22,29.83,-9999.0,SSW,11.5,18.4,N/A,,Unknown,200,2012-09-15 22:56:00
6:56 PM,81.0,41.0,24,29.81,-9999.0,SSW,11.5,-,N/A,,Unknown,210,2012-09-15 23:56:00
7:56 PM,81.0,41.0,24,29.80,-9999.0,WSW,18.4,-,N/A,,Unknown,240,2012-09-16 00:56:00
8:56 PM,78.1,41.0,27,29.81,-9999.0,WSW,18.4,24.2,N/A,,Unknown,250,2012-09-16 01:56:00
9:56 PM,73.9,44.1,34,29.81,-9999.0,WSW,15.0,20.7,N/A,,Unknown,250,2012-09-16 02:56:00
10:56 PM,73.9,42.1,32,29.79,-9999.0,WSW,17.3,24.2,N/A,,Unknown,250,2012-09-16 03:56:00
11:56 PM,71.1,42.1,35,29.81,-9999.0,West,16.1,23.0,N/A,,Unknown,260,2012-09-16 04:56:00